createdAt,value
2019-04-07T00:00:41.154Z,989.72
2019-04-07T00:01:41.208Z,989.70
2019-04-07T00:02:41.268Z,989.72
2019-04-07T00:03:41.127Z,989.72
2019-04-07T00:04:41.423Z,989.73
2019-04-07T00:05:41.541Z,989.74
2019-04-07T00:06:41.599Z,989.72
2019-04-07T00:07:41.434Z,989.76
2019-04-07T00:08:41.108Z,989.75
2019-04-07T00:09:41.097Z,989.74
2019-04-07T00:10:41.390Z,989.76
2019-04-07T00:11:41.073Z,989.78
2019-04-07T00:12:41.267Z,989.78
2019-04-07T00:13:41.387Z,989.81
2019-04-07T00:14:41.052Z,989.78
2019-04-07T00:15:41.534Z,989.79
2019-04-07T00:16:41.036Z,989.78
2019-04-07T00:17:41.058Z,989.74
2019-04-07T00:18:41.632Z,989.75
2019-04-07T00:19:41.016Z,989.78
2019-04-07T00:20:42.007Z,989.73
2019-04-07T00:21:41.037Z,989.68
2019-04-07T00:22:41.003Z,989.67
2019-04-07T00:23:40.999Z,989.67
2019-04-07T00:24:41.630Z,989.70
2019-04-07T00:25:41.453Z,989.72
2019-04-07T00:26:40.969Z,989.71
2019-04-07T00:27:40.963Z,989.72
2019-04-07T00:28:40.959Z,989.72
2019-04-07T00:29:40.949Z,989.77
2019-04-07T00:30:40.955Z,989.79
2019-04-07T00:31:41.518Z,989.84
2019-04-07T00:32:41.382Z,989.90
2019-04-07T00:33:41.365Z,989.92
2019-04-07T00:34:41.487Z,989.92
2019-04-07T00:35:40.952Z,989.89
2019-04-07T00:36:40.916Z,989.90
2019-04-07T00:37:40.899Z,989.89
2019-04-07T00:38:49.548Z,989.88
2019-04-07T00:40:45.440Z,989.87
2019-04-07T00:41:45.442Z,989.90
2019-04-07T00:42:45.555Z,989.94
2019-04-07T00:43:45.990Z,989.96
2019-04-07T00:44:45.483Z,989.94
2019-04-07T00:45:45.922Z,989.96
2019-04-07T00:46:45.331Z,990.02
2019-04-07T00:47:45.314Z,990.03
2019-04-07T00:48:45.308Z,989.99
2019-04-07T00:49:45.301Z,989.99
2019-04-07T00:50:46.022Z,989.97
2019-04-07T00:51:45.306Z,990.01
2019-04-07T00:52:45.341Z,990.04
2019-04-07T00:53:45.440Z,990.02
2019-04-07T00:54:45.874Z,990.01
2019-04-07T00:55:45.259Z,989.98
2019-04-07T00:56:45.515Z,990.01
2019-04-07T00:57:45.629Z,990.03
2019-04-07T00:58:45.674Z,990.02
2019-04-07T00:59:45.264Z,990.07
2019-04-07T01:00:45.229Z,990.04
2019-04-07T01:01:45.222Z,990.07
2019-04-07T01:02:45.257Z,990.10
2019-04-07T01:03:45.601Z,990.06
2019-04-07T01:04:45.199Z,990.12
2019-04-07T01:05:45.805Z,990.14
2019-04-07T01:06:45.206Z,990.10
2019-04-07T01:07:45.217Z,990.13
2019-04-07T01:08:45.690Z,990.14
2019-04-07T01:09:45.335Z,990.15
2019-04-07T01:10:45.157Z,990.18
2019-04-07T01:11:45.162Z,990.19
2019-04-07T01:12:45.743Z,990.18
2019-04-07T01:13:45.226Z,990.15
2019-04-07T01:14:45.146Z,990.17
2019-04-07T01:15:45.149Z,990.16
2019-04-07T01:16:45.619Z,990.16
2019-04-07T01:17:45.711Z,990.15
2019-04-07T01:18:45.093Z,990.16
2019-04-07T01:19:45.472Z,990.18
2019-04-07T01:20:45.187Z,990.19
2019-04-07T01:21:45.732Z,990.18
2019-04-07T01:22:45.247Z,990.18
2019-04-07T01:23:45.160Z,990.18
2019-04-07T01:24:45.241Z,990.14
2019-04-07T01:25:45.683Z,990.16
2019-04-07T01:26:45.041Z,990.09
2019-04-07T01:27:45.498Z,990.11
2019-04-07T01:28:45.603Z,990.07
2019-04-07T01:29:45.420Z,990.05
2019-04-07T01:30:45.012Z,990.03
2019-04-07T01:31:45.144Z,990.00
2019-04-07T01:32:45.517Z,989.96
2019-04-07T01:33:44.997Z,990.02
2019-04-07T01:34:44.988Z,989.98
2019-04-07T01:35:49.170Z,989.99
2019-04-07T01:36:45.473Z,989.99
2019-04-07T01:37:44.962Z,989.98
2019-04-07T01:38:45.452Z,989.98
2019-04-07T01:39:44.961Z,989.99
2019-04-07T01:40:45.440Z,990.02
2019-04-07T01:41:44.944Z,990.04
2019-04-07T01:42:45.579Z,990.02
2019-04-07T01:43:44.936Z,990.05
2019-04-07T01:44:44.912Z,990.05
2019-04-07T01:45:45.712Z,990.06
2019-04-07T01:46:44.901Z,990.07
2019-04-07T01:47:44.897Z,990.10
2019-04-07T01:48:44.893Z,990.11
2019-04-07T01:49:45.144Z,990.13
2019-04-07T01:50:45.148Z,990.13
2019-04-07T01:51:45.468Z,990.12
2019-04-07T01:52:44.858Z,990.11
2019-04-07T01:53:45.424Z,990.08
2019-04-07T01:54:44.846Z,990.08
2019-04-07T01:55:45.521Z,990.12
2019-04-07T01:56:44.963Z,990.10
2019-04-07T01:57:45.276Z,990.10
2019-04-07T01:58:44.814Z,990.12
2019-04-07T01:59:45.447Z,990.13
2019-04-07T02:00:44.794Z,990.10
2019-04-07T02:01:45.070Z,990.12
2019-04-07T02:02:44.794Z,990.15
2019-04-07T02:03:44.775Z,990.11
2019-04-07T02:04:44.763Z,990.08
2019-04-07T02:05:56.804Z,990.08
2019-04-07T02:06:45.342Z,990.12
2019-04-07T02:07:44.770Z,990.11
2019-04-07T02:08:45.366Z,990.15
2019-04-07T02:09:44.740Z,990.14
2019-04-07T02:10:44.757Z,990.19
2019-04-07T02:11:45.207Z,990.21
2019-04-07T02:12:44.713Z,990.21
2019-04-07T02:13:45.100Z,990.22
2019-04-07T02:14:44.723Z,990.25
2019-04-07T02:15:44.721Z,990.24
2019-04-07T02:16:45.217Z,990.26
2019-04-07T02:17:44.781Z,990.22
2019-04-07T02:18:45.383Z,990.25
2019-04-07T02:19:44.890Z,990.20
2019-04-07T02:20:44.657Z,990.23
2019-04-07T02:21:44.978Z,990.24
2019-04-07T02:22:44.635Z,990.22
2019-04-07T02:23:51.837Z,990.25
2019-04-07T02:25:49.117Z,990.23
2019-04-07T02:26:49.717Z,990.25
2019-04-07T02:27:49.563Z,990.26
2019-04-07T02:28:49.573Z,990.25
2019-04-07T02:29:49.058Z,990.28
2019-04-07T02:30:49.187Z,990.25
2019-04-07T02:31:49.947Z,990.25
2019-04-07T02:32:49.061Z,990.27
2019-04-07T02:33:49.740Z,990.28
2019-04-07T02:34:49.126Z,990.30
2019-04-07T02:35:49.015Z,990.25
2019-04-07T02:36:49.943Z,990.26
2019-04-07T02:37:48.997Z,990.30
2019-04-07T02:38:49.995Z,990.29
2019-04-07T02:39:49.019Z,990.31
2019-04-07T02:40:49.014Z,990.29
2019-04-07T02:41:48.977Z,990.32
2019-04-07T02:42:48.988Z,990.30
2019-04-07T02:43:48.957Z,990.34
2019-04-07T02:44:49.398Z,990.36
2019-04-07T02:45:49.298Z,990.34
2019-04-07T02:46:48.931Z,990.34
2019-04-07T02:47:48.939Z,990.34
2019-04-07T02:48:48.965Z,990.33
2019-04-07T02:49:50.035Z,990.30
2019-04-07T02:50:48.923Z,990.33
2019-04-07T02:51:49.793Z,990.32
2019-04-07T02:52:49.190Z,990.33
2019-04-07T03:10:31.099Z,990.31
2019-04-07T03:11:31.199Z,990.32
2019-04-07T03:13:35.777Z,990.36
2019-04-07T03:14:45.666Z,990.31
2019-04-07T03:17:02.703Z,990.34
2019-04-07T03:18:00.550Z,990.30
2019-04-07T03:20:07.181Z,990.35
2019-04-07T03:21:07.656Z,990.33
2019-04-07T03:23:03.730Z,990.32
2019-04-07T03:24:03.951Z,990.37
2019-04-07T03:25:03.760Z,990.39
2019-04-07T03:26:04.244Z,990.35
2019-04-07T03:27:04.001Z,990.38
2019-04-07T03:28:03.452Z,990.39
2019-04-07T03:29:03.585Z,990.37
2019-04-07T03:30:04.090Z,990.37
2019-04-07T03:31:04.092Z,990.40
2019-04-07T03:32:05.725Z,990.35
2019-04-07T03:33:06.106Z,990.36
2019-04-07T03:34:05.977Z,990.39
2019-04-07T03:35:15.036Z,990.39
2019-04-07T03:37:33.113Z,990.39
2019-04-07T03:38:19.195Z,990.36
2019-04-07T03:39:19.222Z,990.34
2019-04-07T03:40:19.934Z,990.33
2019-04-07T03:41:19.664Z,990.36
2019-04-07T03:42:19.126Z,990.33
2019-04-07T03:43:19.627Z,990.33
2019-04-07T03:44:19.108Z,990.36
2019-04-07T03:45:20.248Z,990.37
2019-04-07T03:46:19.101Z,990.36
2019-04-07T03:47:19.105Z,990.41
2019-04-07T03:48:19.126Z,990.41
2019-04-07T03:49:20.001Z,990.43
2019-04-07T03:50:19.043Z,990.44
2019-04-07T03:51:19.124Z,990.46
2019-04-07T03:52:19.447Z,990.45
2019-04-07T03:53:20.026Z,990.51
2019-04-07T03:54:19.013Z,990.46
2019-04-07T03:55:19.326Z,990.49
2019-04-07T03:56:19.942Z,990.49
2019-04-07T03:57:19.677Z,990.50
2019-04-07T03:58:19.546Z,990.48
2019-04-07T03:59:18.971Z,990.50
2019-04-07T04:00:19.048Z,990.52
2019-04-07T04:01:19.074Z,990.53
2019-04-07T04:02:19.670Z,990.47
2019-04-07T04:03:19.358Z,990.49
2019-04-07T04:04:19.101Z,990.51
2019-04-07T04:05:19.055Z,990.50
2019-04-07T04:06:19.398Z,990.55
2019-04-07T04:07:28.404Z,990.54
2019-04-07T04:08:18.923Z,990.54
2019-04-07T04:09:18.894Z,990.54
2019-04-07T04:10:19.292Z,990.61
2019-04-07T04:11:18.873Z,990.56
2019-04-07T04:12:18.886Z,990.60
2019-04-07T04:13:19.986Z,990.58
2019-04-07T04:14:18.859Z,990.58
2019-04-07T04:15:18.962Z,990.61
2019-04-07T04:16:18.898Z,990.55
2019-04-07T04:17:19.400Z,990.56
2019-04-07T04:18:18.826Z,990.55
2019-04-07T04:19:18.932Z,990.56
2019-04-07T04:20:19.669Z,990.58
2019-04-07T04:21:19.733Z,990.61
2019-04-07T04:22:18.816Z,990.55
2019-04-07T04:23:19.760Z,990.61
2019-04-07T04:24:19.873Z,990.61
2019-04-07T04:25:19.151Z,990.59
2019-04-07T04:26:18.761Z,990.65
2019-04-07T04:27:18.851Z,990.66
2019-04-07T04:28:19.348Z,990.66
2019-04-07T04:29:18.877Z,990.65
2019-04-07T04:30:18.970Z,990.69
2019-04-07T04:31:19.532Z,990.66
2019-04-07T04:32:18.984Z,990.73
2019-04-07T04:33:18.732Z,990.70
2019-04-07T04:34:19.262Z,990.69
2019-04-07T04:35:18.988Z,990.69
2019-04-07T04:36:18.924Z,990.73
2019-04-07T04:37:34.333Z,990.75
2019-04-07T04:38:18.694Z,990.74
2019-04-07T04:39:20.303Z,990.76
2019-04-07T04:40:19.081Z,990.79
2019-04-07T04:41:19.016Z,990.82
2019-04-07T04:42:18.647Z,990.82
2019-04-07T04:43:18.621Z,990.85
2019-04-07T04:44:18.738Z,990.86
2019-04-07T04:45:18.612Z,990.89
2019-04-07T04:46:18.717Z,990.87
2019-04-07T04:47:19.113Z,990.87
2019-04-07T04:48:19.691Z,990.90
2019-04-07T04:49:19.023Z,990.85
2019-04-07T04:50:18.574Z,990.86
2019-04-07T04:51:18.563Z,990.89
2019-04-07T04:52:18.595Z,990.90
2019-04-07T04:53:18.613Z,990.91
2019-04-07T04:54:19.319Z,990.95
2019-04-07T04:55:18.928Z,990.96
2019-04-07T04:56:18.696Z,990.95
2019-04-07T04:57:18.535Z,990.99
2019-04-07T04:58:19.307Z,990.98
2019-04-07T04:59:18.529Z,990.98
2019-04-07T05:00:18.731Z,990.96
2019-04-07T05:01:18.705Z,990.96
2019-04-07T05:02:18.953Z,990.98
2019-04-07T05:03:19.394Z,990.99
2019-04-07T05:04:18.525Z,991.00
2019-04-07T05:05:18.466Z,991.00
2019-04-07T05:06:18.489Z,991.02
2019-04-07T05:07:19.056Z,991.03
2019-04-07T05:08:18.419Z,991.02
2019-04-07T05:09:18.421Z,991.01
2019-04-07T05:10:19.232Z,991.02
2019-04-07T05:11:18.878Z,990.99
2019-04-07T05:12:18.416Z,991.00
2019-04-07T05:13:27.270Z,991.02
2019-04-07T05:15:23.101Z,991.07
2019-04-07T05:16:23.085Z,991.04
2019-04-07T05:17:23.174Z,991.07
2019-04-07T05:18:23.011Z,991.04
2019-04-07T05:19:22.835Z,991.03
2019-04-07T05:20:22.946Z,991.03
2019-04-07T05:21:22.887Z,991.05
2019-04-07T05:22:22.933Z,991.04
2019-04-07T05:23:23.104Z,991.03
2019-04-07T05:24:22.806Z,991.09
2019-04-07T05:25:22.875Z,991.10
2019-04-07T05:26:23.932Z,991.07
2019-04-07T05:27:22.913Z,991.10
2019-04-07T05:28:22.800Z,991.14
2019-04-07T05:29:22.744Z,991.14
2019-04-07T05:30:22.744Z,991.14
2019-04-07T05:31:23.207Z,991.12
2019-04-07T05:32:23.276Z,991.13
2019-04-07T05:33:22.721Z,991.13
2019-04-07T05:34:23.106Z,991.11
2019-04-07T05:35:22.760Z,991.15
2019-04-07T05:36:22.695Z,991.18
2019-04-07T05:37:23.033Z,991.17
2019-04-07T05:38:31.753Z,991.22
2019-04-07T05:40:29.393Z,991.20
2019-04-07T05:41:28.405Z,991.22
2019-04-07T05:42:27.869Z,991.21
2019-04-07T05:43:27.716Z,991.24
2019-04-07T05:45:59.848Z,991.29
2019-04-07T05:46:59.699Z,991.26
2019-04-07T05:48:00.096Z,991.29
2019-04-07T05:49:00.458Z,991.32
2019-04-07T05:50:02.723Z,991.34
2019-04-07T05:51:00.781Z,991.34
2019-04-07T05:52:04.205Z,991.34
2019-04-07T05:52:59.613Z,991.35
2019-04-07T05:54:00.298Z,991.38
2019-04-07T05:54:59.588Z,991.34
2019-04-07T05:55:59.574Z,991.42
2019-04-07T05:57:01.443Z,991.40
2019-04-07T05:57:59.636Z,991.42
2019-04-07T05:58:59.563Z,991.41
2019-04-07T06:00:00.363Z,991.44
2019-04-07T06:03:30.811Z,991.43
2019-04-07T06:04:30.506Z,991.44
2019-04-07T06:05:31.775Z,991.46
2019-04-07T06:06:41.719Z,991.48
2019-04-07T06:07:31.794Z,991.52
2019-04-07T06:08:36.079Z,991.51
2019-04-07T06:09:33.443Z,991.51
2019-04-07T06:10:30.601Z,991.54
2019-04-07T06:11:33.105Z,991.53
2019-04-07T06:12:30.164Z,991.58
2019-04-07T06:13:30.204Z,991.57
2019-04-07T06:14:30.355Z,991.61
2019-04-07T06:15:30.357Z,991.60
2019-04-07T06:16:30.240Z,991.58
2019-04-07T06:17:30.324Z,991.61
2019-04-07T06:18:33.360Z,991.60
2019-04-07T06:19:30.329Z,991.58
2019-04-07T06:20:30.238Z,991.62
2019-04-07T06:21:30.130Z,991.58
2019-04-07T06:22:30.522Z,991.60
2019-04-07T06:23:30.876Z,991.60
2019-04-07T06:24:32.508Z,991.60
2019-04-07T06:25:33.089Z,991.61
2019-04-07T06:26:30.075Z,991.61
2019-04-07T06:27:30.607Z,991.63
2019-04-07T06:28:30.089Z,991.59
2019-04-07T06:29:30.188Z,991.56
2019-04-07T06:30:32.162Z,991.56
2019-04-07T06:31:32.147Z,991.57
2019-04-07T06:32:30.086Z,991.54
2019-04-07T06:33:30.513Z,991.56
2019-04-07T06:34:30.044Z,991.54
2019-04-07T06:35:30.017Z,991.57
2019-04-07T06:36:30.791Z,991.58
2019-04-07T06:37:30.798Z,991.54
2019-04-07T06:38:34.256Z,991.55
2019-04-07T06:39:31.961Z,991.55
2019-04-07T06:40:30.568Z,991.56
2019-04-07T06:41:31.428Z,991.53
2019-04-07T06:42:32.417Z,991.58
2019-04-07T06:43:30.271Z,991.57
2019-04-07T06:44:30.133Z,991.55
2019-04-07T06:45:30.563Z,991.58
2019-04-07T06:46:30.575Z,991.61
2019-04-07T06:47:31.332Z,991.59
2019-04-07T06:48:30.597Z,991.60
2019-04-07T06:49:29.930Z,991.62
2019-04-07T06:50:29.938Z,991.65
2019-04-07T06:51:31.080Z,991.63
2019-04-07T06:52:30.220Z,991.59
2019-04-07T06:53:30.181Z,991.63
2019-04-07T06:54:29.926Z,991.62
2019-04-07T06:55:32.703Z,991.60
2019-04-07T06:56:32.194Z,991.65
2019-04-07T06:57:29.977Z,991.57
2019-04-07T06:58:29.949Z,991.61
2019-04-07T06:59:29.889Z,991.63
2019-04-07T07:00:30.064Z,991.60
2019-04-07T07:01:30.639Z,991.61
2019-04-07T07:02:31.648Z,991.62
2019-04-07T07:03:33.547Z,991.64
2019-04-07T07:04:30.063Z,991.64
2019-04-07T07:05:30.065Z,991.66
2019-04-07T07:06:29.840Z,991.67
2019-04-07T07:07:29.818Z,991.68
2019-04-07T07:08:45.206Z,991.70
2019-04-07T07:10:43.662Z,991.68
2019-04-07T07:11:35.388Z,991.66
2019-04-07T07:12:38.730Z,991.66
2019-04-07T07:13:36.378Z,991.63
2019-04-07T07:14:41.554Z,991.66
2019-04-07T07:15:36.219Z,991.65
2019-04-07T07:16:34.943Z,991.66
2019-04-07T07:17:34.422Z,991.68
2019-04-07T07:18:34.229Z,991.70
2019-04-07T07:19:34.689Z,991.66
2019-04-07T07:20:34.295Z,991.66
2019-04-07T07:21:38.716Z,991.65
2019-04-07T07:22:34.518Z,991.65
2019-04-07T07:23:34.276Z,991.71
2019-04-07T07:24:34.833Z,991.69
2019-04-07T07:25:34.823Z,991.71
2019-04-07T07:26:35.439Z,991.71
2019-04-07T07:27:34.172Z,991.69
2019-04-07T07:28:34.763Z,991.68
2019-04-07T07:29:34.178Z,991.70
2019-04-07T07:30:34.891Z,991.69
2019-04-07T07:31:34.773Z,991.70
2019-04-07T07:32:37.007Z,991.70
2019-04-07T07:33:34.429Z,991.67
2019-04-07T07:34:34.139Z,991.68
2019-04-07T07:35:34.326Z,991.70
2019-04-07T07:36:34.955Z,991.73
2019-04-07T07:37:34.147Z,991.66
2019-04-07T07:38:34.580Z,991.69
2019-04-07T07:39:34.133Z,991.72
2019-04-07T07:40:35.121Z,991.66
2019-04-07T07:41:34.507Z,991.72
2019-04-07T07:42:34.151Z,991.73
2019-04-07T07:43:34.222Z,991.75
2019-04-07T07:44:37.312Z,991.75
2019-04-07T07:45:34.105Z,991.75
2019-04-07T07:46:34.402Z,991.78
2019-04-07T07:47:34.072Z,991.77
2019-04-07T07:48:34.064Z,991.81
2019-04-07T07:49:36.880Z,991.81
2019-04-07T07:50:34.687Z,991.84
2019-04-07T07:51:34.944Z,991.84
2019-04-07T07:52:34.196Z,991.85
2019-04-07T07:53:34.067Z,991.87
2019-04-07T07:54:35.127Z,991.89
2019-04-07T07:55:37.484Z,991.85
2019-04-07T07:56:48.287Z,991.89
2019-04-07T07:58:39.707Z,991.92
2019-04-07T07:59:48.413Z,991.92
2019-04-07T08:01:46.243Z,991.93
2019-04-07T08:02:44.328Z,991.89
2019-04-07T08:03:55.300Z,991.88
2019-04-07T08:05:57.875Z,991.93
2019-04-07T08:06:58.022Z,991.94
2019-04-07T08:09:09.794Z,992.00
2019-04-07T08:10:01.780Z,991.97
2019-04-07T08:11:57.911Z,991.97
2019-04-07T08:12:57.508Z,992.01
2019-04-07T08:13:57.877Z,992.00
2019-04-07T08:14:58.542Z,991.98
2019-04-07T08:16:06.405Z,992.01
2019-04-07T08:18:12.466Z,991.96
2019-04-07T08:19:02.806Z,991.99
2019-04-07T08:20:02.375Z,992.00
2019-04-07T08:21:02.207Z,991.99
2019-04-07T08:22:03.055Z,991.98
2019-04-07T08:23:02.617Z,992.00
2019-04-07T08:24:02.552Z,992.02
2019-04-07T08:25:02.424Z,991.99
2019-04-07T08:26:02.689Z,992.01
2019-04-07T08:27:02.042Z,992.01
2019-04-07T08:28:04.428Z,992.02
2019-04-07T08:29:05.618Z,992.02
2019-04-07T08:30:02.674Z,992.02
2019-04-07T08:31:01.998Z,991.99
2019-04-07T08:32:11.079Z,991.98
2019-04-07T08:34:06.511Z,991.99
2019-04-07T08:35:06.881Z,992.00
2019-04-07T08:36:09.978Z,992.02
2019-04-07T08:37:06.442Z,992.06
2019-04-07T08:38:06.414Z,992.08
2019-04-07T08:39:18.539Z,992.10
2019-04-07T08:40:07.668Z,992.07
2019-04-07T08:41:10.168Z,992.08
2019-04-07T08:42:09.774Z,992.08
2019-04-07T08:43:07.161Z,992.10
2019-04-07T08:44:07.062Z,992.10
2019-04-07T08:45:06.375Z,992.09
2019-04-07T08:46:06.377Z,992.03
2019-04-07T08:47:06.614Z,992.07
2019-04-07T08:48:06.425Z,992.06
2019-04-07T08:49:06.564Z,992.11
2019-04-07T08:50:07.193Z,992.09
2019-04-07T08:51:06.931Z,992.10
2019-04-07T08:52:09.805Z,992.13
2019-04-07T08:53:06.339Z,992.12
2019-04-07T08:54:06.352Z,992.11
2019-04-07T08:55:07.257Z,992.10
2019-04-07T08:56:08.216Z,992.11
2019-04-07T08:57:06.998Z,992.15
2019-04-07T08:58:06.673Z,992.13
2019-04-07T08:59:10.026Z,992.10
2019-04-07T09:00:06.320Z,992.12
2019-04-07T09:01:06.453Z,992.09
2019-04-07T09:02:06.408Z,992.12
2019-04-07T09:03:11.405Z,992.10
2019-04-07T09:04:06.713Z,992.10
2019-04-07T09:05:06.610Z,992.09
2019-04-07T09:06:06.325Z,992.07
2019-04-07T09:07:06.321Z,992.09
2019-04-07T09:08:07.309Z,992.05
2019-04-07T09:09:07.834Z,992.05
2019-04-07T09:10:07.085Z,992.07
2019-04-07T09:11:06.282Z,992.08
2019-04-07T09:12:07.065Z,992.10
2019-04-07T09:13:08.339Z,992.12
2019-04-07T09:14:07.739Z,992.09
2019-04-07T09:15:10.043Z,992.06
2019-04-07T09:16:06.292Z,992.12
2019-04-07T09:17:06.266Z,992.10
2019-04-07T09:18:06.262Z,992.12
2019-04-07T09:19:08.326Z,992.11
2019-04-07T09:20:09.069Z,992.07
2019-04-07T09:21:06.241Z,992.14
2019-04-07T09:22:06.340Z,992.12
2019-04-07T09:23:06.951Z,992.09
2019-04-07T09:24:07.096Z,992.12
2019-04-07T09:25:08.497Z,992.15
2019-04-07T09:26:10.145Z,992.17
2019-04-07T09:27:06.277Z,992.17
2019-04-07T09:28:06.414Z,992.18
2019-04-07T09:29:06.444Z,992.17
2019-04-07T09:30:08.971Z,992.14
2019-04-07T09:31:06.324Z,992.18
2019-04-07T09:32:06.570Z,992.18
2019-04-07T09:33:06.362Z,992.23
2019-04-07T09:34:06.875Z,992.20
2019-04-07T09:35:07.260Z,992.22
2019-04-07T09:36:06.892Z,992.21
2019-04-07T09:37:06.905Z,992.23
2019-04-07T09:38:08.087Z,992.18
2019-04-07T09:39:06.784Z,992.27
2019-04-07T09:40:06.828Z,992.21
2019-04-07T09:41:06.271Z,992.23
2019-04-07T09:42:06.578Z,992.22
2019-04-07T09:43:06.178Z,992.25
2019-04-07T09:44:06.233Z,992.24
2019-04-07T09:45:09.559Z,992.24
2019-04-07T09:46:09.357Z,992.32
2019-04-07T09:47:06.331Z,992.31
2019-04-07T09:48:06.444Z,992.24
2019-04-07T09:49:06.146Z,992.26
2019-04-07T09:50:06.742Z,992.25
2019-04-07T09:51:07.286Z,992.26
2019-04-07T09:52:10.224Z,992.29
2019-04-07T09:53:06.136Z,992.30
2019-04-07T09:54:06.130Z,992.27
2019-04-07T09:55:08.341Z,992.27
2019-04-07T09:56:08.829Z,992.31
2019-04-07T09:57:07.327Z,992.34
2019-04-07T09:58:09.337Z,992.29
2019-04-07T09:59:06.750Z,992.29
2019-04-07T10:00:07.610Z,992.31
2019-04-07T10:01:07.257Z,992.30
2019-04-07T10:02:06.709Z,992.29
2019-04-07T10:03:09.805Z,992.26
2019-04-07T10:04:07.262Z,992.26
2019-04-07T10:05:06.093Z,992.28
2019-04-07T10:06:09.875Z,992.29
2019-04-07T10:07:09.191Z,992.31
2019-04-07T10:09:45.890Z,992.29
2019-04-07T10:10:45.584Z,992.24
2019-04-07T10:11:46.188Z,992.29
2019-04-07T10:12:45.895Z,992.25
2019-04-07T10:13:46.345Z,992.32
2019-04-07T10:14:46.584Z,992.28
2019-04-07T10:15:45.644Z,992.26
2019-04-07T10:16:45.808Z,992.31
2019-04-07T10:17:45.588Z,992.27
2019-04-07T10:18:45.959Z,992.34
2019-04-07T10:19:45.750Z,992.29
2019-04-07T10:20:45.544Z,992.28
2019-04-07T10:21:45.674Z,992.29
2019-04-07T10:22:46.166Z,992.24
2019-04-07T10:23:46.458Z,992.26
2019-04-07T10:24:45.951Z,992.30
2019-04-07T10:25:45.566Z,992.30
2019-04-07T10:26:45.507Z,992.33
2019-04-07T10:27:45.482Z,992.33
2019-04-07T10:28:46.154Z,992.32
2019-04-07T10:29:45.483Z,992.33
2019-04-07T10:30:45.981Z,992.36
2019-04-07T10:31:46.314Z,992.34
2019-04-07T10:32:46.279Z,992.35
2019-04-07T10:33:46.061Z,992.34
2019-04-07T10:34:46.074Z,992.34
2019-04-07T10:35:45.648Z,992.36
2019-04-07T10:36:45.464Z,992.35
2019-04-07T10:37:55.164Z,992.33
2019-04-07T10:39:51.037Z,992.35
2019-04-07T10:40:51.206Z,992.39
2019-04-07T10:41:51.217Z,992.40
2019-04-07T10:42:59.862Z,992.38
2019-04-07T10:44:45.830Z,992.40
2019-04-07T10:45:44.839Z,992.35
2019-04-07T10:46:53.851Z,992.38
2019-04-07T10:48:48.943Z,992.42
2019-04-07T10:49:57.913Z,992.42
2019-04-07T10:50:49.253Z,992.43
2019-04-07T10:51:48.957Z,992.47
2019-04-07T10:52:48.907Z,992.52
2019-04-07T10:53:49.338Z,992.51
2019-04-07T10:54:49.258Z,992.47
2019-04-07T10:55:49.491Z,992.47
2019-04-07T10:56:49.759Z,992.50
2019-04-07T10:57:49.389Z,992.48
2019-04-07T10:58:48.871Z,992.44
2019-04-07T10:59:49.313Z,992.46
2019-04-07T11:00:50.884Z,992.47
2019-04-07T11:01:49.088Z,992.51
2019-04-07T11:02:52.802Z,992.52
2019-04-07T11:03:49.728Z,992.52
2019-04-07T11:04:49.191Z,992.52
2019-04-07T11:05:49.231Z,992.52
2019-04-07T11:06:49.496Z,992.54
2019-04-07T11:07:49.326Z,992.53
2019-04-07T11:08:49.085Z,992.55
2019-04-07T11:11:29.204Z,992.50
2019-04-07T11:12:30.328Z,992.49
2019-04-07T11:13:29.880Z,992.52
2019-04-07T11:15:57.612Z,992.52
2019-04-07T11:16:29.569Z,992.49
2019-04-07T11:17:29.253Z,992.49
2019-04-07T11:18:29.320Z,992.44
2019-04-07T11:19:29.163Z,992.45
2019-04-07T11:20:29.930Z,992.50
2019-04-07T11:21:29.097Z,992.47
2019-04-07T11:22:29.645Z,992.48
2019-04-07T11:23:29.444Z,992.46
2019-04-07T11:24:31.159Z,992.45
2019-04-07T11:25:29.550Z,992.46
2019-04-07T11:26:29.891Z,992.47
2019-04-07T11:27:29.493Z,992.52
2019-04-07T11:28:29.178Z,992.45
2019-04-07T11:29:29.558Z,992.47
2019-04-07T11:30:29.120Z,992.47
2019-04-07T11:31:29.145Z,992.46
2019-04-07T11:32:29.050Z,992.47
2019-04-07T11:33:29.078Z,992.48
2019-04-07T11:34:29.286Z,992.48
2019-04-07T11:35:30.767Z,992.49
2019-04-07T11:36:29.826Z,992.51
2019-04-07T11:37:29.227Z,992.47
2019-04-07T11:38:29.199Z,992.45
2019-04-07T11:39:29.130Z,992.47
2019-04-07T11:40:32.955Z,992.53
2019-04-07T11:41:29.072Z,992.49
2019-04-07T11:42:29.482Z,992.48
2019-04-07T11:43:29.053Z,992.47
2019-04-07T11:44:29.323Z,992.48
2019-04-07T11:45:29.024Z,992.48
2019-04-07T11:46:29.509Z,992.46
2019-04-07T11:47:29.826Z,992.52
2019-04-07T11:48:29.459Z,992.48
2019-04-07T11:49:29.071Z,992.51
2019-04-07T11:50:29.691Z,992.51
2019-04-07T11:51:29.110Z,992.46
2019-04-07T11:52:29.156Z,992.51
2019-04-07T11:53:29.471Z,992.47
2019-04-07T11:54:29.574Z,992.48
2019-04-07T11:55:30.103Z,992.49
2019-04-07T11:56:29.641Z,992.47
2019-04-07T11:57:29.058Z,992.49
2019-04-07T11:58:32.322Z,992.50
2019-04-07T11:59:29.071Z,992.53
2019-04-07T12:02:01.930Z,992.48
2019-04-07T12:03:01.357Z,992.48
2019-04-07T12:04:01.354Z,992.47
2019-04-07T12:06:52.684Z,992.50
2019-04-07T12:07:41.146Z,992.45
2019-04-07T12:08:40.562Z,992.51
2019-04-07T12:09:41.228Z,992.50
2019-04-07T12:10:40.443Z,992.51
2019-04-07T12:11:40.537Z,992.49
2019-04-07T12:12:40.461Z,992.50
2019-04-07T12:13:42.735Z,992.47
2019-04-07T12:14:40.439Z,992.47
2019-04-07T12:15:40.463Z,992.45
2019-04-07T12:16:41.256Z,992.45
2019-04-07T12:17:42.320Z,992.46
2019-04-07T12:18:40.734Z,992.44
2019-04-07T12:19:40.823Z,992.46
2019-04-07T12:20:40.784Z,992.45
2019-04-07T12:21:40.606Z,992.45
2019-04-07T12:22:41.702Z,992.42
2019-04-07T12:23:41.295Z,992.44
2019-04-07T12:24:41.208Z,992.46
2019-04-07T12:25:40.447Z,992.47
2019-04-07T12:26:42.473Z,992.43
2019-04-07T12:27:43.006Z,992.48
2019-04-07T12:28:41.136Z,992.42
2019-04-07T12:29:40.435Z,992.46
2019-04-07T12:30:40.384Z,992.46
2019-04-07T12:31:40.471Z,992.47
2019-04-07T12:32:41.421Z,992.48
2019-04-07T12:33:40.419Z,992.46
2019-04-07T12:34:44.047Z,992.44
2019-04-07T12:35:40.411Z,992.43
2019-04-07T12:36:40.897Z,992.43
2019-04-07T12:37:42.326Z,992.42
2019-04-07T12:38:43.173Z,992.42
2019-04-07T12:39:40.713Z,992.43
2019-04-07T12:40:40.394Z,992.41
2019-04-07T12:41:40.373Z,992.36
2019-04-07T12:42:40.374Z,992.39
2019-04-07T12:43:40.442Z,992.39
2019-04-07T12:44:40.364Z,992.39
2019-04-07T12:45:40.381Z,992.40
2019-04-07T12:46:40.756Z,992.40
2019-04-07T12:47:41.113Z,992.42
2019-04-07T12:48:41.048Z,992.40
2019-04-07T12:49:44.391Z,992.37
2019-04-07T12:50:40.377Z,992.39
2019-04-07T12:51:40.382Z,992.36
2019-04-07T12:52:40.965Z,992.40
2019-04-07T12:53:41.130Z,992.36
2019-04-07T12:54:42.963Z,992.32
2019-04-07T12:55:40.521Z,992.27
2019-04-07T12:56:40.569Z,992.31
2019-04-07T12:57:40.387Z,992.31
2019-04-07T12:58:43.972Z,992.28
2019-04-07T12:59:41.090Z,992.28
2019-04-07T13:00:54.468Z,992.27
2019-04-07T13:01:43.819Z,992.27
2019-04-07T13:02:40.349Z,992.22
2019-04-07T13:03:40.796Z,992.21
2019-04-07T13:04:40.773Z,992.23
2019-04-07T13:05:49.832Z,992.26
2019-04-07T13:07:48.387Z,992.23
2019-04-07T13:08:46.760Z,992.24
2019-04-07T13:09:54.852Z,992.22
2019-04-07T13:11:50.444Z,992.21
2019-04-07T13:12:59.387Z,992.21
2019-04-07T13:14:46.036Z,992.20
2019-04-07T13:15:49.347Z,992.19
2019-04-07T13:16:45.946Z,992.19
2019-04-07T13:17:46.242Z,992.21
2019-04-07T13:18:46.500Z,992.20
2019-04-07T13:19:48.950Z,992.23
2019-04-07T13:20:49.216Z,992.20
2019-04-07T13:21:46.850Z,992.24